createdAt,value
2022-08-09T00:00:00.717Z,85.00
2022-08-09T00:02:33.114Z,88.10
2022-08-09T00:06:15.396Z,89.40
2022-08-09T00:07:52.370Z,90.40
2022-08-09T00:10:24.319Z,90.20
2022-08-09T00:12:53.355Z,90.20
2022-08-09T00:15:26.525Z,91.10
2022-08-09T00:18:05.512Z,92.10
2022-08-09T00:20:42.112Z,92.50
2022-08-09T00:23:55.459Z,92.50
2022-08-09T00:26:05.081Z,92.20
2022-08-09T00:28:34.373Z,92.10
2022-08-09T00:31:30.728Z,91.80
2022-08-09T00:33:53.215Z,91.70
2022-08-09T00:36:29.538Z,91.00
2022-08-09T00:38:58.652Z,90.90
2022-08-09T00:44:16.377Z,90.90
2022-08-09T00:44:26.374Z,91.30
2022-08-09T00:47:05.565Z,91.30
2022-08-09T00:49:34.623Z,91.50
2022-08-09T00:52:28.209Z,91.60
2022-08-09T00:54:54.828Z,91.60
2022-08-09T00:57:24.602Z,91.80
2022-08-09T01:00:02.882Z,92.10
2022-08-09T01:02:33.948Z,92.50
2022-08-09T01:05:13.999Z,91.80
2022-08-09T01:08:00.178Z,91.80
2022-08-09T01:10:35.030Z,91.70
2022-08-09T01:13:09.699Z,91.90
2022-08-09T01:15:52.579Z,92.50
2022-08-09T01:18:29.907Z,92.90
2022-08-09T01:21:10.919Z,92.90
2022-08-09T01:24:02.774Z,92.90
2022-08-09T01:26:46.332Z,92.90
2022-08-09T01:29:28.134Z,92.90
2022-08-09T01:32:30.738Z,93.10
2022-08-09T01:34:49.534Z,93.30
2022-08-09T01:37:42.753Z,93.10
2022-08-09T01:40:11.235Z,93.20
2022-08-09T01:42:53.603Z,93.20
2022-08-09T01:45:23.347Z,92.90
2022-08-09T01:47:53.017Z,93.10
2022-08-09T01:50:29.970Z,93.40
2022-08-09T01:53:19.212Z,93.80
2022-08-09T01:55:50.620Z,94.30
2022-08-09T01:58:23.995Z,94.80
2022-08-09T02:00:54.371Z,95.00
2022-08-09T02:03:23.122Z,95.00
2022-08-09T02:06:06.159Z,94.80
2022-08-09T02:08:57.546Z,94.80
2022-08-09T02:11:42.638Z,95.30
2022-08-09T02:14:26.206Z,95.50
2022-08-09T02:16:59.827Z,95.80
2022-08-09T02:19:43.916Z,95.70
2022-08-09T02:22:31.626Z,96.20
2022-08-09T02:25:06.753Z,96.70
2022-08-09T02:27:58.012Z,97.10
2022-08-09T02:30:27.095Z,97.30
2022-08-09T02:32:55.973Z,96.50
2022-08-09T02:36:03.407Z,96.30
2022-08-09T02:38:28.498Z,96.20
2022-08-09T02:41:00.081Z,96.20
2022-08-09T02:43:30.062Z,95.90
2022-08-09T02:46:18.505Z,96.00
2022-08-09T02:48:47.726Z,96.20
2022-08-09T02:51:21.323Z,96.20
2022-08-09T02:54:00.513Z,96.10
2022-08-09T02:56:31.337Z,95.30
2022-08-09T02:59:01.683Z,94.90
2022-08-09T03:02:05.560Z,95.10
2022-08-09T03:04:21.471Z,95.50
2022-08-09T03:06:57.770Z,95.10
2022-08-09T03:09:33.731Z,94.70
2022-08-09T03:12:05.541Z,95.20
2022-08-09T03:14:38.668Z,96.00
2022-08-09T03:17:16.356Z,97.40
2022-08-09T03:19:59.481Z,97.60
2022-08-09T03:22:32.077Z,97.80
2022-08-09T03:25:26.888Z,97.30
2022-08-09T03:27:51.683Z,96.40
2022-08-09T03:30:23.734Z,96.20
2022-08-09T03:33:05.519Z,96.60
2022-08-09T03:36:11.478Z,96.80
2022-08-09T03:38:28.950Z,96.40
2022-08-09T03:40:58.526Z,95.70
2022-08-09T03:43:31.416Z,95.30
2022-08-09T03:46:05.159Z,95.30
2022-08-09T03:48:54.862Z,95.20
2022-08-09T03:51:57.123Z,95.60
2022-08-09T03:54:11.802Z,95.80
2022-08-09T03:56:41.037Z,96.00
2022-08-09T03:59:17.064Z,96.10
2022-08-09T04:01:50.663Z,96.30
2022-08-09T04:04:20.717Z,96.70
2022-08-09T04:06:52.504Z,96.90
2022-08-09T04:09:48.442Z,96.70
2022-08-09T04:12:30.911Z,96.90
2022-08-09T04:15:01.483Z,96.90
2022-08-09T04:17:31.261Z,96.80
2022-08-09T04:20:02.633Z,96.60
2022-08-09T04:22:31.846Z,96.40
2022-08-09T04:25:01.323Z,96.10
2022-08-09T04:27:31.131Z,96.00
2022-08-09T04:30:00.695Z,96.10
2022-08-09T04:32:33.696Z,96.40
2022-08-09T04:35:08.527Z,96.90
2022-08-09T04:37:45.226Z,97.60
2022-08-09T04:40:28.824Z,97.70
2022-08-09T04:43:03.523Z,97.90
2022-08-09T04:45:36.235Z,98.00
2022-08-09T04:48:19.511Z,98.40
2022-08-09T04:50:50.100Z,99.00
2022-08-09T04:53:17.934Z,99.20
2022-08-09T04:55:57.329Z,99.90
2022-08-09T04:58:27.194Z,99.90
2022-08-09T05:00:55.417Z,99.90
2022-08-09T05:03:40.389Z,99.90
2022-08-09T05:06:18.261Z,99.90
2022-08-09T05:08:53.598Z,99.90
2022-08-09T05:11:30.447Z,99.90
2022-08-09T05:14:00.629Z,99.90
2022-08-09T05:16:33.475Z,99.90
2022-08-09T05:19:14.866Z,99.90
2022-08-09T05:21:47.201Z,99.90
2022-08-09T05:24:23.324Z,99.40
2022-08-09T05:26:52.078Z,99.10
2022-08-09T05:29:22.015Z,99.30
2022-08-09T05:31:59.116Z,99.60
2022-08-09T05:34:30.900Z,99.40
2022-08-09T05:37:06.370Z,99.60
2022-08-09T05:39:43.797Z,99.90
2022-08-09T05:42:17.983Z,99.90
2022-08-09T05:45:01.858Z,99.90
2022-08-09T05:47:30.315Z,99.90
2022-08-09T05:50:24.283Z,99.90
2022-08-09T05:52:53.419Z,99.90
2022-08-09T05:55:24.003Z,99.90
2022-08-09T05:57:57.161Z,99.90
2022-08-09T06:00:26.403Z,99.90
2022-08-09T06:02:56.970Z,99.90
2022-08-09T06:05:50.011Z,99.90
2022-08-09T06:08:19.900Z,99.90
2022-08-09T06:10:53.608Z,99.90
2022-08-09T06:13:21.509Z,99.90
2022-08-09T06:15:51.547Z,99.90
2022-08-09T06:18:25.347Z,99.90
2022-08-09T06:20:54.644Z,99.90
2022-08-09T06:23:57.751Z,99.90
2022-08-09T06:26:14.941Z,99.90
2022-08-09T06:28:48.445Z,99.90
2022-08-09T06:31:16.245Z,99.90
2022-08-09T06:33:52.951Z,99.90
2022-08-09T06:36:27.193Z,99.90
2022-08-09T06:38:56.915Z,99.90
2022-08-09T06:42:07.984Z,99.90
2022-08-09T06:44:14.786Z,99.20
2022-08-09T06:46:48.211Z,99.30
2022-08-09T06:49:29.142Z,99.60
2022-08-09T06:52:06.395Z,99.90
2022-08-09T06:54:37.009Z,99.20
2022-08-09T06:57:06.794Z,99.70
2022-08-09T07:00:51.715Z,99.90
2022-08-09T07:02:29.237Z,99.60
2022-08-09T07:04:59.818Z,98.90
2022-08-09T07:08:00.418Z,98.30
2022-08-09T07:10:29.699Z,97.90
2022-08-09T07:12:59.791Z,97.20
2022-08-09T07:16:34.790Z,97.30
2022-08-09T07:18:15.818Z,96.90
2022-08-09T07:20:44.635Z,95.90
2022-08-09T07:23:18.609Z,96.30
2022-08-09T07:25:52.219Z,95.90
2022-08-09T07:28:28.062Z,94.90
2022-08-09T07:30:56.257Z,94.10
2022-08-09T07:33:24.063Z,93.50
2022-08-09T07:35:54.709Z,93.20
2022-08-09T07:38:23.406Z,92.50
2022-08-09T07:40:54.056Z,92.40
2022-08-09T07:43:41.167Z,92.50
2022-08-09T07:46:19.495Z,91.70
2022-08-09T07:48:52.748Z,92.00
2022-08-09T07:52:06.197Z,91.80
2022-08-09T07:54:15.438Z,91.50
2022-08-09T07:56:49.038Z,90.60
2022-08-09T07:59:34.755Z,90.60
2022-08-09T08:02:05.460Z,90.00
2022-08-09T08:04:34.175Z,88.30
2022-08-09T08:07:14.853Z,88.00
2022-08-09T08:10:08.291Z,88.80
2022-08-09T08:12:43.623Z,90.10
2022-08-09T08:15:14.330Z,89.80
2022-08-09T08:17:53.009Z,88.40
2022-08-09T08:20:29.216Z,86.80
2022-08-09T08:23:03.539Z,87.20
2022-08-09T08:25:46.667Z,87.80
2022-08-09T08:28:32.146Z,88.40
2022-08-09T08:31:06.123Z,86.90
2022-08-09T08:33:52.490Z,85.30
2022-08-09T08:36:29.757Z,87.30
2022-08-09T08:38:59.705Z,86.10
2022-08-09T08:41:41.893Z,84.90
2022-08-09T08:44:23.202Z,84.00
2022-08-09T08:47:02.780Z,83.40
2022-08-09T08:49:46.672Z,82.50
2022-08-09T08:52:35.033Z,82.90
2022-08-09T08:55:05.404Z,81.90
2022-08-09T08:57:35.272Z,80.50
2022-08-09T09:00:07.858Z,80.10
2022-08-09T09:02:42.894Z,79.40
2022-08-09T09:05:20.051Z,79.20
2022-08-09T09:08:02.629Z,79.10
2022-08-09T09:10:31.747Z,78.40
2022-08-09T09:12:59.604Z,77.70
2022-08-09T09:15:39.177Z,77.70
2022-08-09T09:18:08.115Z,77.90
2022-08-09T09:20:38.699Z,77.50
2022-08-09T09:23:06.662Z,77.90
2022-08-09T09:26:03.922Z,77.20
2022-08-09T09:29:02.498Z,76.40
2022-08-09T09:32:06.265Z,76.30
2022-08-09T09:34:14.468Z,75.70
2022-08-09T09:36:52.834Z,76.80
2022-08-09T09:39:25.555Z,78.90
2022-08-09T09:42:23.254Z,77.70
2022-08-09T09:44:57.800Z,76.60
2022-08-09T09:47:29.577Z,75.00
2022-08-09T09:50:14.553Z,72.70
2022-08-09T09:52:54.894Z,72.70
2022-08-09T09:55:31.334Z,74.40
2022-08-09T09:58:16.607Z,73.40
2022-08-09T10:00:52.954Z,72.70
2022-08-09T10:03:42.950Z,72.80
2022-08-09T10:06:11.671Z,71.00
2022-08-09T10:08:42.418Z,72.40
2022-08-09T10:11:59.282Z,72.90
2022-08-09T10:14:27.441Z,71.80
2022-08-09T10:17:11.446Z,71.10
2022-08-09T10:19:52.830Z,70.90
2022-08-09T10:22:33.058Z,69.20
2022-08-09T10:25:03.541Z,68.60
2022-08-09T10:27:55.955Z,67.40
2022-08-09T10:33:29.738Z,68.00
2022-08-09T10:36:04.717Z,68.60
2022-08-09T10:38:54.477Z,67.60
2022-08-09T10:41:20.980Z,66.00
2022-08-09T10:43:59.051Z,66.70
2022-08-09T10:47:00.423Z,64.30
2022-08-09T10:49:49.909Z,65.30
2022-08-09T10:52:42.970Z,65.20
2022-08-09T10:55:23.918Z,64.80
2022-08-09T10:57:52.453Z,64.50
2022-08-09T11:01:11.370Z,64.70
2022-08-09T11:03:49.766Z,64.30
2022-08-09T11:06:26.071Z,62.80
2022-08-09T11:08:59.765Z,63.90
2022-08-09T11:12:12.064Z,62.00
2022-08-09T11:14:41.890Z,62.70
2022-08-09T11:17:53.665Z,61.70
2022-08-09T11:20:43.265Z,59.70
2022-08-09T11:23:11.603Z,59.60
2022-08-09T11:25:48.192Z,60.80
2022-08-09T11:28:55.803Z,61.50
2022-08-09T11:31:52.920Z,60.50
2022-08-09T11:34:43.110Z,60.90
2022-08-09T11:37:18.151Z,59.50
2022-08-09T11:40:03.104Z,59.00
2022-08-09T11:42:48.542Z,58.50
2022-08-09T11:45:26.270Z,58.30
2022-08-09T11:48:26.164Z,57.50
2022-08-09T11:52:39.723Z,57.90
2022-08-09T11:54:13.686Z,55.70
2022-08-09T11:56:48.211Z,54.80
2022-08-09T11:59:30.715Z,54.40
2022-08-09T12:02:18.352Z,55.70
2022-08-09T12:04:58.028Z,54.50
2022-08-09T12:07:29.006Z,54.10
2022-08-09T12:10:31.822Z,54.00
2022-08-09T12:13:00.257Z,53.80
2022-08-09T12:15:49.954Z,53.20
2022-08-09T12:18:29.775Z,53.20
2022-08-09T12:21:02.662Z,53.80
2022-08-09T12:23:57.954Z,55.40
2022-08-09T12:26:26.112Z,55.00
2022-08-09T12:29:10.126Z,55.70
2022-08-09T12:31:59.013Z,55.00
2022-08-09T12:34:36.023Z,54.40
2022-08-09T12:37:21.983Z,54.50
2022-08-09T12:40:03.211Z,53.50
2022-08-09T12:42:34.152Z,54.60
2022-08-09T12:45:02.919Z,54.40
2022-08-09T12:47:53.192Z,53.90
2022-08-09T12:50:23.460Z,54.10
2022-08-09T12:53:18.163Z,54.00
2022-08-09T12:56:11.478Z,54.30
2022-08-09T12:58:29.044Z,52.80
2022-08-09T13:00:58.011Z,54.10
2022-08-09T13:03:54.153Z,53.80
2022-08-09T13:06:34.563Z,52.60
2022-08-09T13:09:10.903Z,51.40
2022-08-09T13:11:43.044Z,51.90
2022-08-09T13:14:42.139Z,51.70
2022-08-09T13:17:02.704Z,52.80
2022-08-09T13:20:07.525Z,54.10
2022-08-09T13:22:36.094Z,52.00
2022-08-09T13:25:12.126Z,51.20
2022-08-09T13:27:48.095Z,51.10
2022-08-09T13:30:49.226Z,51.20
2022-08-09T13:33:17.282Z,51.20
2022-08-09T13:36:38.768Z,50.20
2022-08-09T13:38:57.357Z,50.10
2022-08-09T13:41:55.829Z,50.70
2022-08-09T13:44:16.845Z,50.70
2022-08-09T13:47:27.369Z,50.20
2022-08-09T13:49:55.777Z,51.50
2022-08-09T13:52:23.579Z,50.70
2022-08-09T13:55:00.452Z,51.00
2022-08-09T13:57:35.691Z,51.10
2022-08-09T14:00:08.063Z,51.40
2022-08-09T14:02:42.061Z,52.50
2022-08-09T14:05:12.163Z,52.10
2022-08-09T14:07:43.058Z,52.40
2022-08-09T14:10:17.179Z,52.30
2022-08-09T14:12:57.066Z,51.30
2022-08-09T14:16:10.526Z,50.80
2022-08-09T14:18:19.143Z,50.10
2022-08-09T14:20:48.922Z,49.80
2022-08-09T14:23:20.310Z,51.20
2022-08-09T14:26:06.657Z,51.70
2022-08-09T14:28:35.598Z,51.20
2022-08-09T14:31:03.640Z,51.60
2022-08-09T14:33:31.833Z,51.50
2022-08-09T14:36:19.625Z,51.20
2022-08-09T14:38:53.212Z,50.50
2022-08-09T14:41:40.216Z,50.30
2022-08-09T14:44:11.168Z,49.80
2022-08-09T14:47:01.488Z,48.70
2022-08-09T14:49:27.302Z,50.00
2022-08-09T14:51:58.813Z,49.30
2022-08-09T14:54:28.558Z,49.40
2022-08-09T14:56:58.704Z,48.90
2022-08-09T14:59:28.463Z,49.30
2022-08-09T15:01:56.841Z,50.10
2022-08-09T15:04:26.326Z,50.50
2022-08-09T15:06:54.329Z,50.80
2022-08-09T15:10:03.532Z,49.90
2022-08-09T15:12:12.397Z,50.20
2022-08-09T15:14:40.213Z,50.60
2022-08-09T15:17:09.591Z,50.10
2022-08-09T15:19:59.510Z,48.90
2022-08-09T15:22:26.098Z,49.50
2022-08-09T15:24:54.544Z,50.10
2022-08-09T15:27:23.892Z,50.90
2022-08-09T15:30:57.051Z,49.60
2022-08-09T15:32:43.272Z,50.30
2022-08-09T15:35:40.008Z,50.80
2022-08-09T15:38:11.758Z,50.80
2022-08-09T15:40:43.679Z,49.60
2022-08-09T15:43:14.229Z,50.30
2022-08-09T15:45:51.964Z,50.70
2022-08-09T15:48:31.886Z,50.10
2022-08-09T15:51:00.368Z,50.30
2022-08-09T15:54:05.277Z,50.10
2022-08-09T15:56:21.389Z,51.60
2022-08-09T15:58:58.043Z,50.90
2022-08-09T16:01:25.968Z,51.30
2022-08-09T16:03:53.781Z,50.90
2022-08-09T16:06:35.868Z,51.10
2022-08-09T16:09:06.487Z,51.50
2022-08-09T16:11:34.829Z,50.50
2022-08-09T16:14:08.044Z,51.00
2022-08-09T16:16:36.866Z,51.50
2022-08-09T16:19:05.929Z,51.60
2022-08-09T16:21:48.688Z,51.30
2022-08-09T16:24:33.797Z,51.80
2022-08-09T16:27:02.312Z,52.70
2022-08-09T16:29:37.286Z,52.20
2022-08-09T16:32:18.924Z,51.90
2022-08-09T16:34:57.947Z,52.30
2022-08-09T16:37:55.830Z,51.70
2022-08-09T16:40:20.573Z,52.00
2022-08-09T16:42:58.237Z,51.90
2022-08-09T16:45:27.661Z,52.20
2022-08-09T16:48:41.193Z,53.00
2022-08-09T16:50:49.625Z,52.60
2022-08-09T16:53:34.004Z,54.40
2022-08-09T16:56:09.402Z,53.50
2022-08-09T16:58:39.896Z,52.30
2022-08-09T17:01:12.087Z,52.80
2022-08-09T17:03:41.655Z,53.80
2022-08-09T17:06:32.040Z,53.20
2022-08-09T17:09:11.841Z,52.50
2022-08-09T17:11:48.259Z,52.40
2022-08-09T17:14:28.148Z,53.30
2022-08-09T17:17:01.474Z,52.70
2022-08-09T17:20:06.209Z,53.40
2022-08-09T17:22:23.833Z,53.20
2022-08-09T17:25:03.718Z,55.20
2022-08-09T17:27:33.015Z,54.20
2022-08-09T17:30:06.831Z,53.50
2022-08-09T17:32:44.141Z,53.70
2022-08-09T17:35:13.127Z,53.60
2022-08-09T17:38:02.781Z,53.90
2022-08-09T17:40:32.654Z,53.20
2022-08-09T17:43:03.311Z,54.30
2022-08-09T17:46:03.142Z,53.90
2022-08-09T17:48:29.483Z,54.20
2022-08-09T17:51:06.477Z,53.60
2022-08-09T17:53:43.436Z,54.10
2022-08-09T17:56:18.170Z,54.40
2022-08-09T17:58:52.458Z,53.80
2022-08-09T18:01:22.508Z,53.80
2022-08-09T18:03:54.615Z,54.30
2022-08-09T18:06:31.189Z,54.30
2022-08-09T18:09:01.608Z,54.90
2022-08-09T18:11:32.168Z,55.20
2022-08-09T18:14:19.979Z,55.10
2022-08-09T18:16:48.743Z,55.00
2022-08-09T18:20:57.185Z,55.00
2022-08-09T18:22:13.180Z,54.60
2022-08-09T18:28:03.700Z,54.80
2022-08-09T18:30:41.834Z,54.50
2022-08-09T18:33:15.094Z,55.00
2022-08-09T18:35:58.989Z,54.60
2022-08-09T18:38:28.234Z,55.10
2022-08-09T18:40:56.252Z,55.00
2022-08-09T18:43:25.914Z,55.00
2022-08-09T18:46:50.477Z,55.20
2022-08-09T18:48:42.793Z,55.10
2022-08-09T18:51:12.017Z,55.00
2022-08-09T18:53:59.826Z,55.40
2022-08-09T18:56:28.523Z,55.60
2022-08-09T18:58:56.887Z,55.50
2022-08-09T19:01:25.607Z,55.80
2022-08-09T19:04:06.163Z,56.20
2022-08-09T19:06:38.575Z,56.50
2022-08-09T19:09:07.740Z,56.60
2022-08-09T19:11:41.718Z,56.70
2022-08-09T19:14:09.533Z,57.00
2022-08-09T19:16:38.071Z,57.40
2022-08-09T19:19:21.521Z,57.60
2022-08-09T19:22:06.295Z,57.60
2022-08-09T19:25:09.114Z,58.90
2022-08-09T19:27:23.233Z,58.60
2022-08-09T19:30:21.589Z,58.60
2022-08-09T19:32:38.858Z,59.00
2022-08-09T19:35:07.936Z,59.10
2022-08-09T19:37:54.611Z,59.50
2022-08-09T19:40:33.440Z,60.10
2022-08-09T19:43:05.131Z,61.00
2022-08-09T19:45:40.106Z,61.60
2022-08-09T19:48:10.808Z,61.90
2022-08-09T19:50:50.717Z,63.20
2022-08-09T19:53:21.135Z,64.40
2022-08-09T19:56:02.449Z,65.80
2022-08-09T19:58:34.817Z,67.70
2022-08-09T20:01:04.052Z,69.00
2022-08-09T20:04:25.133Z,69.60
2022-08-09T20:06:23.372Z,70.50
2022-08-09T20:08:59.551Z,72.10
2022-08-09T20:11:42.933Z,71.80
2022-08-09T20:14:15.283Z,71.70
2022-08-09T20:16:49.923Z,72.60
2022-08-09T20:19:49.156Z,74.70
2022-08-09T20:22:10.446Z,76.30
2022-08-09T20:24:53.376Z,76.60
2022-08-09T20:27:22.576Z,76.70
2022-08-09T20:29:50.488Z,76.80
2022-08-09T20:32:40.193Z,76.70
2022-08-09T20:35:07.119Z,77.30
2022-08-09T20:38:20.415Z,77.70
2022-08-09T20:40:27.070Z,77.70
2022-08-09T20:42:59.841Z,77.90
2022-08-09T20:46:01.452Z,79.00
2022-08-09T20:48:29.077Z,80.00
2022-08-09T20:50:59.103Z,80.20
2022-08-09T20:53:36.220Z,80.40
2022-08-09T20:56:19.827Z,80.70
2022-08-09T20:58:49.713Z,81.30
2022-08-09T21:01:35.398Z,80.80
2022-08-09T21:05:49.486Z,80.40
2022-08-09T21:06:53.992Z,78.60
2022-08-09T21:09:41.530Z,77.20
2022-08-09T21:14:42.010Z,76.70
2022-08-09T21:18:11.317Z,76.80
2022-08-09T21:20:19.212Z,77.30
2022-08-09T21:22:52.586Z,78.20
2022-08-09T21:25:44.468Z,78.90
2022-08-09T21:28:34.491Z,79.10
2022-08-09T21:31:16.563Z,79.10
2022-08-09T21:33:50.854Z,79.30
2022-08-09T21:36:20.471Z,78.90
2022-08-09T21:38:51.100Z,79.50
2022-08-09T21:42:04.148Z,79.30
2022-08-09T21:44:33.341Z,79.90
2022-08-09T21:47:04.970Z,80.30
2022-08-09T21:49:40.247Z,81.40
2022-08-09T21:52:16.341Z,81.90
2022-08-09T21:54:49.535Z,82.20
2022-08-09T21:57:37.534Z,82.30
2022-08-09T22:00:12.856Z,82.50
2022-08-09T22:02:42.877Z,83.20
2022-08-09T22:05:23.041Z,83.90
2022-08-09T22:07:53.296Z,84.70
2022-08-09T22:10:24.031Z,85.30
2022-08-09T22:12:52.692Z,85.70
2022-08-09T22:15:23.319Z,86.20
2022-08-09T22:18:04.068Z,86.10
2022-08-09T22:20:32.259Z,86.60
2022-08-09T22:23:00.382Z,88.30
2022-08-09T22:26:07.089Z,89.50
2022-08-09T22:28:21.129Z,90.20
2022-08-09T22:31:02.867Z,90.00
2022-08-09T22:33:42.591Z,89.30
2022-08-09T22:36:19.401Z,89.50
2022-08-09T22:38:47.810Z,89.30
2022-08-09T22:41:16.165Z,87.70
2022-08-09T22:44:03.320Z,86.60
2022-08-09T22:48:16.877Z,86.60
2022-08-09T22:49:21.857Z,86.90
2022-08-09T22:51:57.408Z,87.10
2022-08-09T22:54:27.301Z,87.60
2022-08-09T22:56:56.989Z,88.50
2022-08-09T22:59:56.800Z,88.60
2022-08-09T23:02:20.302Z,89.30
2022-08-09T23:04:54.071Z,90.70
2022-08-09T23:08:27.367Z,90.70
2022-08-09T23:10:29.207Z,90.80
2022-08-09T23:12:57.076Z,90.90
2022-08-09T23:15:25.032Z,91.10
2022-08-09T23:17:54.164Z,91.20
2022-08-09T23:20:22.399Z,91.00
2022-08-09T23:22:50.199Z,90.60
2022-08-09T23:25:17.980Z,90.40
2022-08-09T23:28:14.018Z,90.50
2022-08-09T23:30:33.559Z,90.20
2022-08-09T23:33:02.682Z,89.40
2022-08-09T23:35:30.430Z,88.90
2022-08-09T23:38:18.584Z,89.10
2022-08-09T23:40:46.585Z,87.80
2022-08-09T23:43:14.348Z,87.20
2022-08-09T23:45:42.090Z,87.00
2022-08-09T23:48:11.261Z,87.60
2022-08-09T23:50:39.145Z,87.80
2022-08-09T23:53:07.105Z,87.80
2022-08-09T23:55:37.991Z,88.50
2022-08-09T23:58:09.330Z,89.50
